createdAt,value
2022-09-28T04:16:01.676Z,0.30
2022-09-28T04:18:33.344Z,0.30
2022-09-28T04:21:23.065Z,0.60
2022-09-28T04:23:55.308Z,5.43
2022-09-28T04:26:27.178Z,0.70
2022-09-28T04:29:12.834Z,0.40
2022-09-28T04:32:14.795Z,0.70
2022-09-28T04:34:44.069Z,0.30
2022-09-28T04:37:11.352Z,0.30
2022-09-28T04:39:38.795Z,0.45
2022-09-28T04:42:06.246Z,0.30
2022-09-28T04:44:32.778Z,0.38
2022-09-28T04:47:05.496Z,0.30
2022-09-28T04:49:32.325Z,0.25
2022-09-28T04:52:08.210Z,0.30
2022-09-28T04:54:35.177Z,0.30
2022-09-28T04:57:03.301Z,0.40
2022-09-28T04:59:41.109Z,0.60
2022-09-28T05:02:09.881Z,0.50
2022-09-28T05:04:36.367Z,0.50
2022-09-28T05:07:17.938Z,0.40
2022-09-28T05:09:44.423Z,0.40
2022-09-28T05:12:11.027Z,0.50
2022-09-28T05:14:38.175Z,0.50
2022-09-28T05:17:05.426Z,0.20
2022-09-28T05:20:41.026Z,0.20
2022-09-28T05:24:23.730Z,0.30
2022-09-28T05:26:51.821Z,0.50
2022-09-28T05:29:19.195Z,0.30
2022-09-28T05:32:16.757Z,0.32
2022-09-28T05:35:19.973Z,0.30
2022-09-28T05:37:51.382Z,0.20
2022-09-28T05:40:18.837Z,0.30
2022-09-28T05:42:45.398Z,0.47
2022-09-28T05:45:13.024Z,0.40
2022-09-28T05:47:43.977Z,0.50
2022-09-28T05:50:15.916Z,0.60
2022-09-28T05:52:43.778Z,0.57
2022-09-28T05:55:11.120Z,0.50
2022-09-28T05:57:37.737Z,0.30
2022-09-28T06:00:08.862Z,0.55
2022-09-28T06:02:56.063Z,0.50
2022-09-28T06:05:23.132Z,0.68
2022-09-28T06:07:49.943Z,0.40
2022-09-28T06:10:16.539Z,0.30
2022-09-28T06:12:43.179Z,0.70
2022-09-28T06:15:15.507Z,0.40
2022-09-28T06:17:44.088Z,0.55
2022-09-28T06:21:50.226Z,0.45
2022-09-28T06:24:23.052Z,0.57
2022-09-28T06:26:53.637Z,0.88
2022-09-28T06:29:21.320Z,0.52
2022-09-28T06:32:09.857Z,0.55
2022-09-28T06:34:38.127Z,0.47
2022-09-28T06:37:04.751Z,0.52
2022-09-28T06:39:31.884Z,0.50
2022-09-28T06:42:03.255Z,0.82
2022-09-28T06:44:50.049Z,0.60
2022-09-28T06:48:10.015Z,0.60
2022-09-28T06:50:42.647Z,0.43
2022-09-28T06:53:35.733Z,0.50
2022-09-28T06:56:11.054Z,0.63
2022-09-28T06:58:37.735Z,0.40
2022-09-28T07:01:05.733Z,0.35
2022-09-28T07:04:52.347Z,0.30
2022-09-28T07:07:49.300Z,0.47
2022-09-28T07:10:48.931Z,0.47
2022-09-28T07:13:51.238Z,0.47
2022-09-28T07:16:12.818Z,0.43
2022-09-28T07:18:39.311Z,0.40
2022-09-28T07:21:08.659Z,0.50
2022-09-28T07:23:54.295Z,0.40
2022-09-28T07:26:24.862Z,0.40
2022-09-28T07:29:17.430Z,0.50
2022-09-28T07:31:56.008Z,0.50
2022-09-28T07:34:28.706Z,0.70
2022-09-28T07:37:01.691Z,0.47
2022-09-28T07:39:28.698Z,0.80
2022-09-28T07:41:59.650Z,0.77
2022-09-28T07:44:29.521Z,0.70
2022-09-28T07:46:59.563Z,0.93
2022-09-28T07:49:52.364Z,0.32
2022-09-28T07:52:39.571Z,0.45
2022-09-28T07:55:13.937Z,0.30
2022-09-28T07:58:04.725Z,0.50
2022-09-28T08:00:47.531Z,0.57
2022-09-28T08:03:18.109Z,0.40
2022-09-28T08:05:45.659Z,0.40
2022-09-28T08:08:18.431Z,0.30
2022-09-28T08:11:43.827Z,0.43
2022-09-28T08:15:21.372Z,0.20
2022-09-28T08:18:06.955Z,0.22
2022-09-28T08:20:52.560Z,0.60
2022-09-28T08:23:20.385Z,0.17
2022-09-28T08:25:53.854Z,0.50
2022-09-28T08:28:24.192Z,0.30
2022-09-28T08:30:54.275Z,0.50
2022-09-28T08:33:42.066Z,0.50
2022-09-28T08:41:17.533Z,0.20
2022-09-28T08:44:24.096Z,0.20
2022-09-28T08:47:37.982Z,0.57
2022-09-28T08:50:32.893Z,0.35
2022-09-28T08:53:58.666Z,0.20
2022-09-28T08:56:44.733Z,0.40
2022-09-28T08:59:16.509Z,0.50
2022-09-28T09:01:57.736Z,0.22
2022-09-28T09:04:33.381Z,0.17
2022-09-28T09:08:02.943Z,0.70
2022-09-28T09:10:45.060Z,0.20
2022-09-28T09:13:31.925Z,0.30
2022-09-28T09:16:20.905Z,0.15
2022-09-28T09:24:18.678Z,0.10
2022-09-28T09:27:37.978Z,0.20
2022-09-28T09:30:11.798Z,0.10
2022-09-28T09:32:57.844Z,0.10
2022-09-28T09:35:59.381Z,0.10
2022-09-28T09:39:34.456Z,0.32
2022-09-28T09:42:51.598Z,0.47
2022-09-28T09:46:41.333Z,0.50
2022-09-28T09:50:25.878Z,0.30
2022-09-28T09:53:38.471Z,0.20
2022-09-28T09:56:16.962Z,0.30
2022-09-28T09:59:24.007Z,0.20
2022-09-28T10:02:33.197Z,0.20
2022-09-28T10:05:13.600Z,0.20
2022-09-28T10:08:20.542Z,0.28
2022-09-28T10:11:09.564Z,0.10
2022-09-28T10:13:40.337Z,0.20
2022-09-28T10:16:27.103Z,0.10
2022-09-28T10:18:58.997Z,0.20
2022-09-28T10:21:46.812Z,0.20
2022-09-28T10:25:22.667Z,0.30
2022-09-28T10:32:20.737Z,0.17
2022-09-28T10:34:50.286Z,0.20
2022-09-28T10:37:26.477Z,0.20
2022-09-28T10:40:01.567Z,0.20
2022-09-28T10:42:35.438Z,0.28
2022-09-28T10:45:13.855Z,0.00
2022-09-28T10:47:44.728Z,0.20
2022-09-28T10:50:20.350Z,0.30
2022-09-28T10:52:47.561Z,0.30
2022-09-28T10:55:37.536Z,0.10
2022-09-28T10:58:38.245Z,0.30
2022-09-28T11:01:26.823Z,0.30
2022-09-28T11:04:03.018Z,0.10
2022-09-28T11:06:33.191Z,0.20
2022-09-28T11:09:02.656Z,0.15
2022-09-28T11:11:29.893Z,0.30
2022-09-28T11:14:42.069Z,0.20
2022-09-28T11:17:18.492Z,0.30
2022-09-28T11:19:46.581Z,0.20
2022-09-28T11:22:44.855Z,0.30
2022-09-28T11:25:17.551Z,0.20
2022-09-28T11:27:53.109Z,0.20
2022-09-28T11:30:24.985Z,0.08
2022-09-28T11:33:17.743Z,0.20
2022-09-28T11:36:17.168Z,0.20
2022-09-28T11:39:09.256Z,0.20
2022-09-28T11:42:42.845Z,0.10
2022-09-28T11:45:25.828Z,0.22
2022-09-28T11:48:00.864Z,0.20
2022-09-28T11:51:10.593Z,0.20
2022-09-28T11:53:47.955Z,0.13
2022-09-28T11:56:27.435Z,0.10
2022-09-28T11:59:04.602Z,0.20
2022-09-28T12:01:46.823Z,0.30
2022-09-28T12:04:39.805Z,0.20
2022-09-28T12:07:31.143Z,0.25
2022-09-28T12:10:15.404Z,0.10
2022-09-28T12:12:51.781Z,0.40
2022-09-28T12:15:26.582Z,0.17
2022-09-28T12:17:58.406Z,0.28
2022-09-28T12:20:32.983Z,0.38
2022-09-28T12:22:59.504Z,0.10
2022-09-28T12:25:29.514Z,0.22
2022-09-28T12:28:16.758Z,0.10
2022-09-28T12:30:46.241Z,0.17
2022-09-28T12:33:17.536Z,0.88
2022-09-28T12:36:02.651Z,0.20
2022-09-28T12:38:54.117Z,0.10
2022-09-28T12:41:42.164Z,0.30
2022-09-28T12:44:28.152Z,0.13
2022-09-28T12:47:16.014Z,0.28
2022-09-28T12:50:53.992Z,0.10
2022-09-28T12:53:52.946Z,0.45
2022-09-28T12:57:03.733Z,0.30
2022-09-28T13:00:00.987Z,0.20
2022-09-28T13:02:43.880Z,0.45
2022-09-28T13:05:37.247Z,0.10
2022-09-28T13:08:10.935Z,0.10
2022-09-28T13:10:55.179Z,0.10
2022-09-28T13:13:38.036Z,0.20
2022-09-28T13:16:17.503Z,0.10
2022-09-28T13:19:16.786Z,0.25
2022-09-28T13:22:18.831Z,0.40
2022-09-28T13:24:46.431Z,0.32
2022-09-28T13:27:23.984Z,0.55
2022-09-28T13:29:52.249Z,0.15
2022-09-28T13:32:19.782Z,0.50
2022-09-28T13:34:49.563Z,0.10
2022-09-28T13:37:26.215Z,0.20
2022-09-28T13:39:55.179Z,0.20
2022-09-28T13:42:24.939Z,0.20
2022-09-28T13:51:22.038Z,0.28
2022-09-28T13:54:08.652Z,0.20
2022-09-28T13:57:02.696Z,0.35
2022-09-28T13:59:31.944Z,0.10
2022-09-28T14:02:09.601Z,0.10
2022-09-28T14:05:17.256Z,0.20
2022-09-28T14:07:43.781Z,0.10
2022-09-28T14:10:25.925Z,0.20
2022-09-28T14:12:54.021Z,0.22
2022-09-28T14:15:46.650Z,0.20
2022-09-28T14:18:16.292Z,0.15
2022-09-28T14:21:02.602Z,0.20
2022-09-28T14:24:03.360Z,0.20
2022-09-28T14:27:02.106Z,0.20
2022-09-28T14:29:32.027Z,0.60
2022-09-28T14:32:09.701Z,0.30
2022-09-28T14:34:38.053Z,0.20
2022-09-28T14:37:36.809Z,0.17
2022-09-28T14:40:50.305Z,0.10
2022-09-28T14:43:25.994Z,0.38
2022-09-28T14:46:14.579Z,0.20
2022-09-28T14:48:54.126Z,0.20
2022-09-28T14:51:26.757Z,0.10
2022-09-28T14:53:55.233Z,0.17
2022-09-28T14:56:22.219Z,0.20
2022-09-28T14:58:55.970Z,0.20
2022-09-28T15:01:24.678Z,0.30
2022-09-28T15:03:57.055Z,0.30
2022-09-28T15:06:24.846Z,0.22
2022-09-28T15:08:51.572Z,0.22
2022-09-28T15:11:24.032Z,0.38
2022-09-28T15:14:04.466Z,0.40
2022-09-28T15:16:31.242Z,0.30
2022-09-28T15:19:23.660Z,0.20
2022-09-28T15:21:51.112Z,0.22
2022-09-28T15:24:31.619Z,0.30
2022-09-28T15:27:15.136Z,0.73
2022-09-28T15:29:41.744Z,0.38
2022-09-28T15:32:23.537Z,0.20
2022-09-28T15:34:54.378Z,0.22
2022-09-28T15:37:32.912Z,0.20
2022-09-28T15:40:00.793Z,0.30
2022-09-28T15:42:59.119Z,0.32
2022-09-28T15:45:39.904Z,0.15
2022-09-28T15:48:31.112Z,0.30
2022-09-28T15:51:11.580Z,0.10
2022-09-28T15:53:43.718Z,0.30
2022-09-28T15:56:11.739Z,0.10
2022-09-28T15:58:39.516Z,0.10
2022-09-28T16:01:39.725Z,0.20
2022-09-28T16:04:40.477Z,0.22
2022-09-28T16:07:13.048Z,0.30
2022-09-28T16:09:54.993Z,0.20
2022-09-28T16:12:31.712Z,0.30
2022-09-28T16:15:04.143Z,0.35
2022-09-28T16:17:34.221Z,0.47
2022-09-28T16:20:23.887Z,0.35
2022-09-28T16:22:51.012Z,0.20
2022-09-28T16:25:25.594Z,0.30
2022-09-28T16:27:55.060Z,0.30
2022-09-28T16:30:28.838Z,0.20
2022-09-28T16:33:01.825Z,0.28
2022-09-28T16:35:40.531Z,0.38
2022-09-28T16:38:16.134Z,0.40
2022-09-28T16:40:53.867Z,0.43
2022-09-28T16:43:29.316Z,0.40
2022-09-28T16:45:58.750Z,0.30
2022-09-28T16:48:28.337Z,0.45
2022-09-28T16:50:55.846Z,0.40
2022-09-28T16:53:41.543Z,0.80
2022-09-28T16:56:08.454Z,3.80
2022-09-28T16:58:36.525Z,1.30
2022-09-28T17:01:03.283Z,0.40
2022-09-28T17:03:30.045Z,0.43
2022-09-28T17:05:56.871Z,0.45
2022-09-28T17:08:26.662Z,0.68
2022-09-28T17:11:13.938Z,0.60
2022-09-28T17:13:43.995Z,0.60
2022-09-28T17:16:32.218Z,0.38
2022-09-28T17:19:33.175Z,0.35
2022-09-28T17:21:59.607Z,0.25
2022-09-28T17:24:27.095Z,0.52
2022-09-28T17:26:54.179Z,0.52
2022-09-28T17:29:20.688Z,0.40
2022-09-28T17:31:48.177Z,0.47
2022-09-28T17:34:16.191Z,0.40
2022-09-28T17:36:44.136Z,0.32
2022-09-28T17:39:16.616Z,0.50
2022-09-28T17:41:43.454Z,2.75
2022-09-28T17:44:10.208Z,2.97
2022-09-28T17:46:48.469Z,2.60
2022-09-28T17:49:15.618Z,1.58
2022-09-28T17:51:42.244Z,0.93
2022-09-28T17:54:08.952Z,0.63
2022-09-28T17:56:40.573Z,0.55
2022-09-28T17:59:16.142Z,0.60
2022-09-28T18:01:42.671Z,1.30
2022-09-28T18:04:23.004Z,1.73
2022-09-28T18:06:50.953Z,5.88
2022-09-28T18:09:24.750Z,3.00
2022-09-28T18:11:52.765Z,4.13
2022-09-28T18:14:19.182Z,4.03
2022-09-28T18:16:45.998Z,1.95
2022-09-28T18:19:12.532Z,1.63
2022-09-28T18:21:39.017Z,1.65
2022-09-28T18:24:05.658Z,1.67
2022-09-28T18:26:32.094Z,1.50
2022-09-28T18:28:58.550Z,1.58
2022-09-28T18:31:25.082Z,1.35
2022-09-28T18:33:57.331Z,1.95
2022-09-28T18:36:32.190Z,1.98
2022-09-28T18:39:00.914Z,1.83
2022-09-28T18:41:27.981Z,3.45
2022-09-28T18:44:00.435Z,2.70
2022-09-28T18:46:28.885Z,3.72
2022-09-28T18:49:52.498Z,4.07
2022-09-28T18:52:18.988Z,3.83
2022-09-28T18:54:46.746Z,4.95
2022-09-28T18:57:13.367Z,4.35
2022-09-28T18:59:40.075Z,4.75
2022-09-28T19:02:06.821Z,5.03
2022-09-28T19:04:33.339Z,2.60
2022-09-28T19:06:59.924Z,2.25
2022-09-28T19:09:26.653Z,1.70
2022-09-28T19:12:00.728Z,3.35
2022-09-28T19:15:20.100Z,2.53
2022-09-28T19:18:39.680Z,2.45
2022-09-28T19:21:08.673Z,1.40
2022-09-28T19:23:36.719Z,1.15
2022-09-28T19:26:09.252Z,0.90
2022-09-28T19:28:35.766Z,0.85
2022-09-28T19:31:04.689Z,0.65
2022-09-28T19:33:31.216Z,0.55
2022-09-28T19:36:04.034Z,0.40
2022-09-28T19:38:32.191Z,0.68
2022-09-28T19:40:59.502Z,0.63
2022-09-28T19:43:27.255Z,1.13
2022-09-28T19:45:55.868Z,0.75
2022-09-28T19:48:26.693Z,0.88
2022-09-28T19:50:58.498Z,1.00
2022-09-28T19:53:30.932Z,1.02
2022-09-28T19:55:59.182Z,0.70
2022-09-28T19:58:29.948Z,0.90
2022-09-28T20:00:56.738Z,0.90
2022-09-28T20:03:24.499Z,0.73
2022-09-28T20:05:57.056Z,0.70
2022-09-28T20:08:23.859Z,0.75
2022-09-28T20:10:52.405Z,0.70
2022-09-28T20:13:19.105Z,0.80
2022-09-28T20:15:45.757Z,1.17
2022-09-28T20:18:12.466Z,0.57
2022-09-28T20:20:41.931Z,0.90
2022-09-28T20:23:09.290Z,0.77
2022-09-28T20:25:35.965Z,0.77
2022-09-28T20:28:02.485Z,0.90
2022-09-28T20:30:28.925Z,1.20
2022-09-28T20:32:55.502Z,1.17
2022-09-28T20:35:30.611Z,1.40
2022-09-28T20:38:07.701Z,1.40
2022-09-28T20:40:35.229Z,0.93
2022-09-28T20:43:02.110Z,1.45
2022-09-28T20:45:28.544Z,1.33
2022-09-28T20:47:55.001Z,1.33
2022-09-28T20:50:22.081Z,3.38
2022-09-28T20:52:48.563Z,3.30
2022-09-28T20:55:15.203Z,1.60
2022-09-28T20:57:41.666Z,1.35
2022-09-28T21:00:10.286Z,0.90
2022-09-28T21:02:36.804Z,0.90
2022-09-28T21:05:03.540Z,0.85
2022-09-28T21:07:29.991Z,1.33
2022-09-28T21:09:56.446Z,1.52
2022-09-28T21:12:25.877Z,1.77
2022-09-28T21:14:53.680Z,1.08
2022-09-28T21:17:24.102Z,1.17
2022-09-28T21:19:54.067Z,1.17
2022-09-28T21:22:23.325Z,1.63
2022-09-28T21:24:55.470Z,1.77
2022-09-28T21:27:25.046Z,1.63
2022-09-28T21:29:58.062Z,1.45
2022-09-28T21:32:27.773Z,0.88
2022-09-28T21:34:56.082Z,1.30
2022-09-28T21:37:28.033Z,1.08
2022-09-28T21:40:02.817Z,1.45
2022-09-28T21:42:31.689Z,1.27
2022-09-28T21:45:04.178Z,1.30
2022-09-28T21:47:34.130Z,1.35
2022-09-28T21:50:03.313Z,1.20
2022-09-28T21:52:33.148Z,1.40
2022-09-28T21:55:09.760Z,1.65
2022-09-28T21:57:36.391Z,1.25
